sensor_id;sensor_type;location;lat;lon;timestamp;P1;durP1;ratioP1;P2;durP2;ratioP2
11131;SDS011;5620;53.570;9.718;2022-10-16T00:01:28;4.57;;;4.28;;
11131;SDS011;5620;53.570;9.718;2022-10-16T00:03:56;4.10;;;3.80;;
11131;SDS011;5620;53.570;9.718;2022-10-16T00:06:26;3.90;;;3.60;;
11131;SDS011;5620;53.570;9.718;2022-10-16T00:08:55;5.00;;;4.50;;
11131;SDS011;5620;53.570;9.718;2022-10-16T00:11:31;3.70;;;3.25;;
11131;SDS011;5620;53.570;9.718;2022-10-16T00:14:10;5.78;;;3.45;;
11131;SDS011;5620;53.570;9.718;2022-10-16T00:16:39;4.20;;;3.90;;
11131;SDS011;5620;53.570;9.718;2022-10-16T00:19:07;4.00;;;3.58;;
11131;SDS011;5620;53.570;9.718;2022-10-16T00:21:38;3.97;;;3.60;;
11131;SDS011;5620;53.570;9.718;2022-10-16T00:24:06;3.70;;;3.40;;
11131;SDS011;5620;53.570;9.718;2022-10-16T00:26:37;3.20;;;3.00;;
11131;SDS011;5620;53.570;9.718;2022-10-16T00:29:03;8.65;;;3.22;;
11131;SDS011;5620;53.570;9.718;2022-10-16T00:31:29;4.05;;;2.72;;
11131;SDS011;5620;53.570;9.718;2022-10-16T00:33:55;6.43;;;3.00;;
11131;SDS011;5620;53.570;9.718;2022-10-16T00:36:24;2.58;;;2.38;;
11131;SDS011;5620;53.570;9.718;2022-10-16T00:38:51;6.53;;;2.72;;
11131;SDS011;5620;53.570;9.718;2022-10-16T00:41:18;1.98;;;1.88;;
11131;SDS011;5620;53.570;9.718;2022-10-16T00:46:49;3.85;;;2.10;;
11131;SDS011;5620;53.570;9.718;2022-10-16T00:49:18;6.43;;;2.22;;
11131;SDS011;5620;53.570;9.718;2022-10-16T00:51:46;2.27;;;1.70;;
11131;SDS011;5620;53.570;9.718;2022-10-16T00:54:22;3.55;;;1.20;;
11131;SDS011;5620;53.570;9.718;2022-10-16T00:56:51;3.55;;;1.75;;
11131;SDS011;5620;53.570;9.718;2022-10-16T00:59:23;5.32;;;1.92;;
11131;SDS011;5620;53.570;9.718;2022-10-16T01:01:55;3.17;;;2.20;;
11131;SDS011;5620;53.570;9.718;2022-10-16T01:04:23;4.20;;;2.20;;
11131;SDS011;5620;53.570;9.718;2022-10-16T01:18:25;2.00;;;1.23;;
11131;SDS011;5620;53.570;9.718;2022-10-16T01:21:27;1.95;;;1.40;;
11131;SDS011;5620;53.570;9.718;2022-10-16T01:27:06;2.58;;;1.70;;
11131;SDS011;5620;53.570;9.718;2022-10-16T01:33:05;4.50;;;1.30;;
11131;SDS011;5620;53.570;9.718;2022-10-16T01:38:23;5.18;;;1.08;;
11131;SDS011;5620;53.570;9.718;2022-10-16T01:41:00;2.22;;;1.17;;
11131;SDS011;5620;53.570;9.718;2022-10-16T01:43:35;1.50;;;1.00;;
11131;SDS011;5620;53.570;9.718;2022-10-16T01:46:11;1.10;;;1.00;;
11131;SDS011;5620;53.570;9.718;2022-10-16T01:48:41;1.13;;;1.02;;
11131;SDS011;5620;53.570;9.718;2022-10-16T01:51:09;4.55;;;1.10;;
11131;SDS011;5620;53.570;9.718;2022-10-16T01:53:39;2.50;;;1.40;;
11131;SDS011;5620;53.570;9.718;2022-10-16T01:56:09;2.22;;;1.38;;
11131;SDS011;5620;53.570;9.718;2022-10-16T01:58:48;3.93;;;1.10;;
11131;SDS011;5620;53.570;9.718;2022-10-16T02:01:19;1.55;;;1.10;;
11131;SDS011;5620;53.570;9.718;2022-10-16T02:03:52;2.53;;;1.20;;
11131;SDS011;5620;53.570;9.718;2022-10-16T02:06:20;5.28;;;1.33;;
11131;SDS011;5620;53.570;9.718;2022-10-16T02:08:46;3.40;;;1.10;;
11131;SDS011;5620;53.570;9.718;2022-10-16T02:11:14;1.83;;;1.20;;
11131;SDS011;5620;53.570;9.718;2022-10-16T02:13:43;3.67;;;1.30;;
11131;SDS011;5620;53.570;9.718;2022-10-16T02:16:14;2.97;;;0.95;;
11131;SDS011;5620;53.570;9.718;2022-10-16T02:18:42;2.13;;;1.13;;
11131;SDS011;5620;53.570;9.718;2022-10-16T02:33:09;6.60;;;1.20;;
11131;SDS011;5620;53.570;9.718;2022-10-16T02:35:37;1.98;;;1.70;;
11131;SDS011;5620;53.570;9.718;2022-10-16T02:38:09;1.45;;;0.80;;
11131;SDS011;5620;53.570;9.718;2022-10-16T02:40:38;5.50;;;1.30;;
11131;SDS011;5620;53.570;9.718;2022-10-16T02:43:04;3.58;;;0.90;;
11131;SDS011;5620;53.570;9.718;2022-10-16T02:45:30;2.92;;;0.88;;
11131;SDS011;5620;53.570;9.718;2022-10-16T02:47:57;6.77;;;1.83;;
11131;SDS011;5620;53.570;9.718;2022-10-16T02:50:25;2.63;;;1.40;;
11131;SDS011;5620;53.570;9.718;2022-10-16T02:52:52;6.32;;;1.52;;
11131;SDS011;5620;53.570;9.718;2022-10-16T02:55:21;3.28;;;0.90;;
11131;SDS011;5620;53.570;9.718;2022-10-16T02:57:48;4.90;;;0.77;;
11131;SDS011;5620;53.570;9.718;2022-10-16T03:00:15;1.00;;;0.90;;
11131;SDS011;5620;53.570;9.718;2022-10-16T03:02:43;2.85;;;0.85;;
11131;SDS011;5620;53.570;9.718;2022-10-16T03:05:10;1.08;;;0.65;;
11131;SDS011;5620;53.570;9.718;2022-10-16T03:07:37;5.00;;;1.17;;
11131;SDS011;5620;53.570;9.718;2022-10-16T03:10:05;1.13;;;0.68;;
11131;SDS011;5620;53.570;9.718;2022-10-16T03:12:32;2.03;;;0.77;;
11131;SDS011;5620;53.570;9.718;2022-10-16T03:14:59;5.38;;;0.88;;
11131;SDS011;5620;53.570;9.718;2022-10-16T03:17:27;1.48;;;0.73;;
11131;SDS011;5620;53.570;9.718;2022-10-16T03:19:55;4.88;;;1.10;;
11131;SDS011;5620;53.570;9.718;2022-10-16T03:22:22;1.20;;;1.00;;
11131;SDS011;5620;53.570;9.718;2022-10-16T03:24:49;3.05;;;1.05;;
11131;SDS011;5620;53.570;9.718;2022-10-16T03:27:15;4.93;;;1.00;;
11131;SDS011;5620;53.570;9.718;2022-10-16T03:29:43;2.50;;;1.00;;
11131;SDS011;5620;53.570;9.718;2022-10-16T03:32:10;4.32;;;0.85;;
11131;SDS011;5620;53.570;9.718;2022-10-16T03:34:38;3.65;;;1.02;;
11131;SDS011;5620;53.570;9.718;2022-10-16T03:37:05;2.67;;;0.70;;
11131;SDS011;5620;53.570;9.718;2022-10-16T03:39:31;3.33;;;0.97;;
11131;SDS011;5620;53.570;9.718;2022-10-16T03:41:57;6.43;;;1.00;;
11131;SDS011;5620;53.570;9.718;2022-10-16T03:44:24;1.00;;;0.80;;
11131;SDS011;5620;53.570;9.718;2022-10-16T03:46:50;2.30;;;0.95;;
11131;SDS011;5620;53.570;9.718;2022-10-16T03:49:19;3.42;;;2.25;;
11131;SDS011;5620;53.570;9.718;2022-10-16T03:51:47;1.45;;;0.85;;
11131;SDS011;5620;53.570;9.718;2022-10-16T03:54:13;2.40;;;0.70;;
11131;SDS011;5620;53.570;9.718;2022-10-16T03:56:40;1.17;;;0.95;;
11131;SDS011;5620;53.570;9.718;2022-10-16T03:59:07;1.35;;;1.00;;
11131;SDS011;5620;53.570;9.718;2022-10-16T04:01:36;1.27;;;0.77;;
11131;SDS011;5620;53.570;9.718;2022-10-16T04:04:02;1.17;;;0.90;;
11131;SDS011;5620;53.570;9.718;2022-10-16T04:06:30;1.10;;;0.60;;
11131;SDS011;5620;53.570;9.718;2022-10-16T04:08:58;3.03;;;0.80;;
11131;SDS011;5620;53.570;9.718;2022-10-16T04:11:27;2.45;;;0.85;;
11131;SDS011;5620;53.570;9.718;2022-10-16T04:13:54;1.65;;;1.05;;
11131;SDS011;5620;53.570;9.718;2022-10-16T04:16:22;1.80;;;0.90;;
11131;SDS011;5620;53.570;9.718;2022-10-16T04:18:50;8.00;;;3.73;;
11131;SDS011;5620;53.570;9.718;2022-10-16T04:21:17;1.55;;;1.08;;
11131;SDS011;5620;53.570;9.718;2022-10-16T04:23:44;2.80;;;1.65;;
11131;SDS011;5620;53.570;9.718;2022-10-16T04:26:09;4.78;;;1.95;;
11131;SDS011;5620;53.570;9.718;2022-10-16T04:28:37;1.70;;;0.95;;
11131;SDS011;5620;53.570;9.718;2022-10-16T04:31:04;3.10;;;1.33;;
11131;SDS011;5620;53.570;9.718;2022-10-16T04:33:33;3.05;;;0.80;;
11131;SDS011;5620;53.570;9.718;2022-10-16T04:35:59;1.42;;;1.30;;
11131;SDS011;5620;53.570;9.718;2022-10-16T04:38:25;2.08;;;1.05;;
11131;SDS011;5620;53.570;9.718;2022-10-16T04:40:51;1.00;;;0.87;;
11131;SDS011;5620;53.570;9.718;2022-10-16T04:43:19;4.03;;;0.95;;
11131;SDS011;5620;53.570;9.718;2022-10-16T04:45:45;4.18;;;0.98;;
11131;SDS011;5620;53.570;9.718;2022-10-16T04:48:13;1.70;;;0.80;;
11131;SDS011;5620;53.570;9.718;2022-10-16T04:50:39;4.10;;;0.90;;
11131;SDS011;5620;53.570;9.718;2022-10-16T04:53:06;2.97;;;1.00;;
11131;SDS011;5620;53.570;9.718;2022-10-16T04:55:33;2.03;;;1.10;;
11131;SDS011;5620;53.570;9.718;2022-10-16T04:58:04;2.60;;;0.93;;
11131;SDS011;5620;53.570;9.718;2022-10-16T05:00:31;2.80;;;1.00;;
11131;SDS011;5620;53.570;9.718;2022-10-16T05:02:59;7.00;;;4.93;;
11131;SDS011;5620;53.570;9.718;2022-10-16T05:05:27;10.38;;;6.10;;
11131;SDS011;5620;53.570;9.718;2022-10-16T05:07:55;3.55;;;2.10;;
11131;SDS011;5620;53.570;9.718;2022-10-16T05:10:22;4.70;;;2.17;;
11131;SDS011;5620;53.570;9.718;2022-10-16T05:12:51;2.97;;;1.37;;
11131;SDS011;5620;53.570;9.718;2022-10-16T05:15:26;6.70;;;2.33;;
11131;SDS011;5620;53.570;9.718;2022-10-16T05:17:54;9.30;;;3.53;;
11131;SDS011;5620;53.570;9.718;2022-10-16T05:20:20;3.58;;;2.00;;
11131;SDS011;5620;53.570;9.718;2022-10-16T05:22:51;4.75;;;2.00;;
11131;SDS011;5620;53.570;9.718;2022-10-16T05:25:18;4.67;;;2.30;;
11131;SDS011;5620;53.570;9.718;2022-10-16T05:27:48;3.15;;;1.58;;
11131;SDS011;5620;53.570;9.718;2022-10-16T05:30:15;2.40;;;2.20;;
11131;SDS011;5620;53.570;9.718;2022-10-16T05:32:48;4.45;;;2.35;;
11131;SDS011;5620;53.570;9.718;2022-10-16T05:35:16;5.13;;;3.60;;
11131;SDS011;5620;53.570;9.718;2022-10-16T05:37:44;2.83;;;2.57;;
11131;SDS011;5620;53.570;9.718;2022-10-16T05:40:11;3.45;;;2.50;;
11131;SDS011;5620;53.570;9.718;2022-10-16T05:42:39;2.78;;;2.58;;
11131;SDS011;5620;53.570;9.718;2022-10-16T05:45:09;20.70;;;10.15;;
11131;SDS011;5620;53.570;9.718;2022-10-16T05:47:37;9.88;;;5.28;;
11131;SDS011;5620;53.570;9.718;2022-10-16T05:50:03;7.87;;;4.73;;
11131;SDS011;5620;53.570;9.718;2022-10-16T05:52:31;9.07;;;4.85;;
11131;SDS011;5620;53.570;9.718;2022-10-16T05:54:58;6.95;;;2.45;;
11131;SDS011;5620;53.570;9.718;2022-10-16T05:57:26;2.40;;;1.92;;
11131;SDS011;5620;53.570;9.718;2022-10-16T05:59:51;12.40;;;2.67;;
11131;SDS011;5620;53.570;9.718;2022-10-16T06:02:18;4.80;;;2.73;;
11131;SDS011;5620;53.570;9.718;2022-10-16T06:04:46;4.57;;;3.17;;
11131;SDS011;5620;53.570;9.718;2022-10-16T06:07:14;4.18;;;2.53;;
11131;SDS011;5620;53.570;9.718;2022-10-16T06:09:41;2.78;;;1.77;;
11131;SDS011;5620;53.570;9.718;2022-10-16T06:12:10;5.18;;;2.53;;
11131;SDS011;5620;53.570;9.718;2022-10-16T06:14:38;3.60;;;2.00;;
11131;SDS011;5620;53.570;9.718;2022-10-16T06:17:05;4.65;;;2.10;;
11131;SDS011;5620;53.570;9.718;2022-10-16T06:19:32;3.17;;;2.40;;
11131;SDS011;5620;53.570;9.718;2022-10-16T06:21:59;2.65;;;1.92;;
11131;SDS011;5620;53.570;9.718;2022-10-16T06:24:26;4.23;;;2.10;;
11131;SDS011;5620;53.570;9.718;2022-10-16T06:26:54;5.53;;;2.03;;
11131;SDS011;5620;53.570;9.718;2022-10-16T06:29:22;18.02;;;9.77;;
11131;SDS011;5620;53.570;9.718;2022-10-16T06:31:48;9.98;;;4.05;;
11131;SDS011;5620;53.570;9.718;2022-10-16T06:34:16;8.55;;;5.53;;
11131;SDS011;5620;53.570;9.718;2022-10-16T06:36:41;10.63;;;3.43;;
11131;SDS011;5620;53.570;9.718;2022-10-16T06:39:09;5.70;;;3.65;;
11131;SDS011;5620;53.570;9.718;2022-10-16T06:41:36;3.67;;;2.70;;
11131;SDS011;5620;53.570;9.718;2022-10-16T06:44:07;8.88;;;6.38;;
11131;SDS011;5620;53.570;9.718;2022-10-16T06:46:33;2.90;;;1.90;;
11131;SDS011;5620;53.570;9.718;2022-10-16T06:49:01;3.27;;;1.60;;
11131;SDS011;5620;53.570;9.718;2022-10-16T06:51:27;2.55;;;1.70;;
11131;SDS011;5620;53.570;9.718;2022-10-16T06:53:57;2.90;;;2.30;;
11131;SDS011;5620;53.570;9.718;2022-10-16T06:56:25;4.72;;;2.75;;
11131;SDS011;5620;53.570;9.718;2022-10-16T06:58:54;3.22;;;2.00;;
11131;SDS011;5620;53.570;9.718;2022-10-16T07:01:21;2.40;;;1.60;;
11131;SDS011;5620;53.570;9.718;2022-10-16T07:03:51;5.53;;;2.08;;
11131;SDS011;5620;53.570;9.718;2022-10-16T07:06:22;2.65;;;2.22;;
11131;SDS011;5620;53.570;9.718;2022-10-16T07:08:50;6.45;;;2.80;;
11131;SDS011;5620;53.570;9.718;2022-10-16T07:11:22;4.72;;;2.13;;
11131;SDS011;5620;53.570;9.718;2022-10-16T07:13:50;2.03;;;1.90;;
11131;SDS011;5620;53.570;9.718;2022-10-16T07:16:26;4.85;;;2.63;;
11131;SDS011;5620;53.570;9.718;2022-10-16T07:18:58;7.15;;;3.85;;
11131;SDS011;5620;53.570;9.718;2022-10-16T07:21:27;6.40;;;2.50;;
11131;SDS011;5620;53.570;9.718;2022-10-16T07:23:58;2.60;;;2.30;;
11131;SDS011;5620;53.570;9.718;2022-10-16T07:26:30;3.30;;;2.27;;
11131;SDS011;5620;53.570;9.718;2022-10-16T07:28:58;5.18;;;3.80;;
11131;SDS011;5620;53.570;9.718;2022-10-16T07:31:26;8.95;;;3.03;;
11131;SDS011;5620;53.570;9.718;2022-10-16T07:33:52;2.42;;;2.22;;
11131;SDS011;5620;53.570;9.718;2022-10-16T07:36:18;4.03;;;1.98;;
11131;SDS011;5620;53.570;9.718;2022-10-16T07:38:45;7.77;;;2.73;;
11131;SDS011;5620;53.570;9.718;2022-10-16T07:41:15;6.47;;;3.10;;
11131;SDS011;5620;53.570;9.718;2022-10-16T07:43:49;2.33;;;2.05;;
11131;SDS011;5620;53.570;9.718;2022-10-16T07:46:18;4.22;;;1.83;;
11131;SDS011;5620;53.570;9.718;2022-10-16T07:48:46;2.67;;;2.10;;
11131;SDS011;5620;53.570;9.718;2022-10-16T07:51:14;2.20;;;1.87;;
11131;SDS011;5620;53.570;9.718;2022-10-16T07:53:43;4.88;;;2.45;;
11131;SDS011;5620;53.570;9.718;2022-10-16T07:56:10;4.07;;;2.42;;
11131;SDS011;5620;53.570;9.718;2022-10-16T07:58:37;3.53;;;2.42;;
11131;SDS011;5620;53.570;9.718;2022-10-16T08:01:10;6.73;;;2.77;;
11131;SDS011;5620;53.570;9.718;2022-10-16T08:03:48;3.35;;;1.90;;
11131;SDS011;5620;53.570;9.718;2022-10-16T08:06:18;7.22;;;2.35;;
11131;SDS011;5620;53.570;9.718;2022-10-16T08:08:46;2.80;;;1.80;;
11131;SDS011;5620;53.570;9.718;2022-10-16T08:11:13;1.70;;;1.60;;
11131;SDS011;5620;53.570;9.718;2022-10-16T08:13:39;4.22;;;2.63;;
11131;SDS011;5620;53.570;9.718;2022-10-16T08:16:06;4.65;;;1.80;;
11131;SDS011;5620;53.570;9.718;2022-10-16T08:18:37;2.47;;;1.85;;
11131;SDS011;5620;53.570;9.718;2022-10-16T08:21:14;1.80;;;1.70;;
11131;SDS011;5620;53.570;9.718;2022-10-16T08:23:45;3.72;;;2.00;;
11131;SDS011;5620;53.570;9.718;2022-10-16T08:26:11;2.20;;;1.35;;
11131;SDS011;5620;53.570;9.718;2022-10-16T08:28:40;3.20;;;2.00;;
11131;SDS011;5620;53.570;9.718;2022-10-16T08:31:11;2.00;;;1.45;;
11131;SDS011;5620;53.570;9.718;2022-10-16T08:33:46;2.90;;;1.77;;
11131;SDS011;5620;53.570;9.718;2022-10-16T08:36:13;2.53;;;1.98;;
11131;SDS011;5620;53.570;9.718;2022-10-16T08:38:41;6.43;;;1.83;;
11131;SDS011;5620;53.570;9.718;2022-10-16T08:49:31;3.42;;;1.60;;
11131;SDS011;5620;53.570;9.718;2022-10-16T08:51:58;8.50;;;2.60;;
11131;SDS011;5620;53.570;9.718;2022-10-16T08:57:13;4.78;;;1.45;;
11131;SDS011;5620;53.570;9.718;2022-10-16T08:59:50;1.98;;;1.50;;
11131;SDS011;5620;53.570;9.718;2022-10-16T09:11:18;10.27;;;2.03;;
11131;SDS011;5620;53.570;9.718;2022-10-16T09:16:58;3.23;;;1.97;;
11131;SDS011;5620;53.570;9.718;2022-10-16T09:20:06;3.65;;;1.80;;
11131;SDS011;5620;53.570;9.718;2022-10-16T09:23:13;3.28;;;0.90;;
11131;SDS011;5620;53.570;9.718;2022-10-16T09:25:49;2.50;;;1.45;;
11131;SDS011;5620;53.570;9.718;2022-10-16T09:28:16;7.13;;;1.20;;
11131;SDS011;5620;53.570;9.718;2022-10-16T09:30:43;2.90;;;1.20;;
11131;SDS011;5620;53.570;9.718;2022-10-16T09:33:12;7.38;;;1.33;;
11131;SDS011;5620;53.570;9.718;2022-10-16T09:35:39;1.98;;;1.17;;
11131;SDS011;5620;53.570;9.718;2022-10-16T09:38:23;6.50;;;0.90;;
11131;SDS011;5620;53.570;9.718;2022-10-16T09:40:51;2.85;;;0.75;;
11131;SDS011;5620;53.570;9.718;2022-10-16T09:46:02;4.70;;;1.27;;
11131;SDS011;5620;53.570;9.718;2022-10-16T09:48:48;4.65;;;1.02;;
11131;SDS011;5620;53.570;9.718;2022-10-16T09:51:36;4.95;;;1.10;;
11131;SDS011;5620;53.570;9.718;2022-10-16T09:54:25;4.55;;;1.08;;
11131;SDS011;5620;53.570;9.718;2022-10-16T09:56:51;9.80;;;1.13;;
11131;SDS011;5620;53.570;9.718;2022-10-16T09:59:19;4.20;;;2.05;;
11131;SDS011;5620;53.570;9.718;2022-10-16T10:04:40;13.15;;;4.28;;
11131;SDS011;5620;53.570;9.718;2022-10-16T10:07:21;4.03;;;1.90;;
11131;SDS011;5620;53.570;9.718;2022-10-16T10:09:54;2.50;;;1.87;;
11131;SDS011;5620;53.570;9.718;2022-10-16T10:12:31;2.72;;;1.10;;
11131;SDS011;5620;53.570;9.718;2022-10-16T10:15:04;2.35;;;0.90;;
11131;SDS011;5620;53.570;9.718;2022-10-16T10:17:52;4.07;;;1.10;;
11131;SDS011;5620;53.570;9.718;2022-10-16T10:23:00;7.07;;;1.77;;
11131;SDS011;5620;53.570;9.718;2022-10-16T10:25:52;9.00;;;3.78;;
11131;SDS011;5620;53.570;9.718;2022-10-16T10:40:09;2.50;;;1.10;;
11131;SDS011;5620;53.570;9.718;2022-10-16T10:42:48;3.08;;;1.13;;
11131;SDS011;5620;53.570;9.718;2022-10-16T10:45:47;4.25;;;0.57;;
11131;SDS011;5620;53.570;9.718;2022-10-16T10:51:24;3.47;;;1.00;;
11131;SDS011;5620;53.570;9.718;2022-10-16T11:06:10;1.67;;;0.47;;
11131;SDS011;5620;53.570;9.718;2022-10-16T11:11:56;9.38;;;0.95;;
11131;SDS011;5620;53.570;9.718;2022-10-16T11:14:38;5.40;;;3.15;;
11131;SDS011;5620;53.570;9.718;2022-10-16T11:17:29;2.67;;;1.27;;
11131;SDS011;5620;53.570;9.718;2022-10-16T11:20:02;6.67;;;2.77;;
11131;SDS011;5620;53.570;9.718;2022-10-16T11:22:54;4.75;;;0.75;;
11131;SDS011;5620;53.570;9.718;2022-10-16T11:25:38;1.13;;;0.57;;
11131;SDS011;5620;53.570;9.718;2022-10-16T11:36:38;2.92;;;0.80;;
11131;SDS011;5620;53.570;9.718;2022-10-16T11:42:15;1.70;;;0.65;;
11131;SDS011;5620;53.570;9.718;2022-10-16T11:50:50;1.17;;;0.38;;
11131;SDS011;5620;53.570;9.718;2022-10-16T11:56:45;1.73;;;0.50;;
11131;SDS011;5620;53.570;9.718;2022-10-16T12:05:13;2.50;;;0.88;;
11131;SDS011;5620;53.570;9.718;2022-10-16T12:08:13;4.95;;;0.50;;
11131;SDS011;5620;53.570;9.718;2022-10-16T12:10:43;2.85;;;0.50;;
11131;SDS011;5620;53.570;9.718;2022-10-16T12:18:38;1.42;;;0.52;;
11131;SDS011;5620;53.570;9.718;2022-10-16T12:21:07;2.72;;;0.60;;
11131;SDS011;5620;53.570;9.718;2022-10-16T12:23:46;2.20;;;0.70;;
11131;SDS011;5620;53.570;9.718;2022-10-16T12:26:38;6.80;;;1.23;;
11131;SDS011;5620;53.570;9.718;2022-10-16T12:32:20;4.55;;;0.73;;
11131;SDS011;5620;53.570;9.718;2022-10-16T12:34:52;1.25;;;0.47;;
11131;SDS011;5620;53.570;9.718;2022-10-16T12:37:24;2.25;;;0.63;;
11131;SDS011;5620;53.570;9.718;2022-10-16T12:39:57;3.22;;;0.50;;
11131;SDS011;5620;53.570;9.718;2022-10-16T12:44:57;2.20;;;0.57;;
11131;SDS011;5620;53.570;9.718;2022-10-16T12:47:36;2.50;;;0.70;;
11131;SDS011;5620;53.570;9.718;2022-10-16T12:50:25;4.05;;;0.82;;
11131;SDS011;5620;53.570;9.718;2022-10-16T12:53:16;1.88;;;0.70;;
11131;SDS011;5620;53.570;9.718;2022-10-16T12:55:50;4.20;;;0.90;;
11131;SDS011;5620;53.570;9.718;2022-10-16T12:58:57;2.55;;;0.88;;
11131;SDS011;5620;53.570;9.718;2022-10-16T13:20:46;3.63;;;0.50;;
11131;SDS011;5620;53.570;9.718;2022-10-16T13:29:33;2.43;;;0.60;;
11131;SDS011;5620;53.570;9.718;2022-10-16T13:32:01;4.82;;;0.75;;
11131;SDS011;5620;53.570;9.718;2022-10-16T13:34:47;2.15;;;0.60;;
11131;SDS011;5620;53.570;9.718;2022-10-16T13:37:18;7.25;;;0.80;;
11131;SDS011;5620;53.570;9.718;2022-10-16T13:39:48;2.67;;;0.68;;
11131;SDS011;5620;53.570;9.718;2022-10-16T13:42:15;2.03;;;0.47;;
11131;SDS011;5620;53.570;9.718;2022-10-16T13:44:49;1.20;;;0.50;;
11131;SDS011;5620;53.570;9.718;2022-10-16T13:47:21;7.43;;;0.90;;
11131;SDS011;5620;53.570;9.718;2022-10-16T13:52:44;5.18;;;0.60;;
11131;SDS011;5620;53.570;9.718;2022-10-16T13:58:04;3.87;;;0.60;;
11131;SDS011;5620;53.570;9.718;2022-10-16T14:00:58;1.80;;;0.85;;
11131;SDS011;5620;53.570;9.718;2022-10-16T14:03:31;2.95;;;0.70;;
11131;SDS011;5620;53.570;9.718;2022-10-16T14:06:06;4.95;;;0.68;;
11131;SDS011;5620;53.570;9.718;2022-10-16T14:08:42;4.18;;;1.17;;
11131;SDS011;5620;53.570;9.718;2022-10-16T14:11:11;4.90;;;0.80;;
11131;SDS011;5620;53.570;9.718;2022-10-16T14:13:38;3.60;;;1.05;;
11131;SDS011;5620;53.570;9.718;2022-10-16T14:16:15;2.97;;;0.60;;
11131;SDS011;5620;53.570;9.718;2022-10-16T14:18:49;4.50;;;1.15;;
11131;SDS011;5620;53.570;9.718;2022-10-16T14:21:30;3.72;;;0.80;;
11131;SDS011;5620;53.570;9.718;2022-10-16T14:27:01;2.40;;;0.63;;
11131;SDS011;5620;53.570;9.718;2022-10-16T14:29:28;1.95;;;0.70;;
11131;SDS011;5620;53.570;9.718;2022-10-16T14:31:55;1.42;;;0.50;;
11131;SDS011;5620;53.570;9.718;2022-10-16T14:34:41;3.08;;;0.80;;
11131;SDS011;5620;53.570;9.718;2022-10-16T14:37:17;3.97;;;0.87;;
11131;SDS011;5620;53.570;9.718;2022-10-16T14:39:55;3.35;;;0.60;;
11131;SDS011;5620;53.570;9.718;2022-10-16T14:42:23;1.48;;;0.73;;
11131;SDS011;5620;53.570;9.718;2022-10-16T14:44:52;1.70;;;0.50;;
11131;SDS011;5620;53.570;9.718;2022-10-16T14:47:24;4.05;;;1.17;;
11131;SDS011;5620;53.570;9.718;2022-10-16T14:49:53;3.17;;;1.00;;
11131;SDS011;5620;53.570;9.718;2022-10-16T14:52:19;2.78;;;0.95;;
11131;SDS011;5620;53.570;9.718;2022-10-16T14:54:47;3.83;;;0.70;;
11131;SDS011;5620;53.570;9.718;2022-10-16T14:57:26;6.88;;;0.90;;
11131;SDS011;5620;53.570;9.718;2022-10-16T14:59:56;9.32;;;0.77;;
11131;SDS011;5620;53.570;9.718;2022-10-16T15:02:31;4.47;;;0.90;;
11131;SDS011;5620;53.570;9.718;2022-10-16T15:04:59;5.13;;;0.73;;
11131;SDS011;5620;53.570;9.718;2022-10-16T15:07:40;4.00;;;0.60;;
11131;SDS011;5620;53.570;9.718;2022-10-16T15:10:06;3.17;;;0.98;;
11131;SDS011;5620;53.570;9.718;2022-10-16T15:12:32;4.20;;;0.95;;
11131;SDS011;5620;53.570;9.718;2022-10-16T15:15:01;5.03;;;0.83;;
11131;SDS011;5620;53.570;9.718;2022-10-16T15:17:28;7.18;;;0.90;;
11131;SDS011;5620;53.570;9.718;2022-10-16T15:19:55;5.30;;;2.50;;
11131;SDS011;5620;53.570;9.718;2022-10-16T15:22:24;4.53;;;1.10;;
11131;SDS011;5620;53.570;9.718;2022-10-16T15:24:52;5.28;;;1.10;;
11131;SDS011;5620;53.570;9.718;2022-10-16T15:27:18;3.87;;;1.13;;
11131;SDS011;5620;53.570;9.718;2022-10-16T15:29:46;5.68;;;1.38;;
11131;SDS011;5620;53.570;9.718;2022-10-16T15:32:14;3.47;;;1.02;;
11131;SDS011;5620;53.570;9.718;2022-10-16T15:34:40;4.18;;;2.35;;
11131;SDS011;5620;53.570;9.718;2022-10-16T15:37:06;8.80;;;3.07;;
11131;SDS011;5620;53.570;9.718;2022-10-16T15:39:34;17.13;;;3.78;;
11131;SDS011;5620;53.570;9.718;2022-10-16T15:42:03;9.10;;;1.17;;
11131;SDS011;5620;53.570;9.718;2022-10-16T15:44:29;5.03;;;1.33;;
11131;SDS011;5620;53.570;9.718;2022-10-16T15:46:57;4.55;;;1.23;;
11131;SDS011;5620;53.570;9.718;2022-10-16T15:49:24;3.92;;;1.17;;
11131;SDS011;5620;53.570;9.718;2022-10-16T15:51:51;3.03;;;0.90;;
11131;SDS011;5620;53.570;9.718;2022-10-16T15:54:18;1.73;;;0.80;;
11131;SDS011;5620;53.570;9.718;2022-10-16T15:56:46;3.03;;;0.90;;
11131;SDS011;5620;53.570;9.718;2022-10-16T15:59:14;5.55;;;0.75;;
11131;SDS011;5620;53.570;9.718;2022-10-16T16:01:39;3.75;;;0.88;;
11131;SDS011;5620;53.570;9.718;2022-10-16T16:04:07;7.63;;;0.77;;
11131;SDS011;5620;53.570;9.718;2022-10-16T16:06:34;5.13;;;0.82;;
11131;SDS011;5620;53.570;9.718;2022-10-16T16:09:02;5.13;;;0.70;;
11131;SDS011;5620;53.570;9.718;2022-10-16T16:11:29;8.43;;;0.85;;
11131;SDS011;5620;53.570;9.718;2022-10-16T16:13:56;3.05;;;1.20;;
11131;SDS011;5620;53.570;9.718;2022-10-16T16:16:23;3.30;;;0.93;;
11131;SDS011;5620;53.570;9.718;2022-10-16T16:18:52;8.27;;;1.17;;
11131;SDS011;5620;53.570;9.718;2022-10-16T16:21:19;7.03;;;1.00;;
11131;SDS011;5620;53.570;9.718;2022-10-16T16:23:47;7.78;;;1.30;;
11131;SDS011;5620;53.570;9.718;2022-10-16T16:26:21;4.80;;;0.70;;
11131;SDS011;5620;53.570;9.718;2022-10-16T16:28:55;4.97;;;1.20;;
11131;SDS011;5620;53.570;9.718;2022-10-16T16:31:26;5.30;;;0.88;;
11131;SDS011;5620;53.570;9.718;2022-10-16T16:33:54;4.33;;;0.90;;
11131;SDS011;5620;53.570;9.718;2022-10-16T16:36:21;6.28;;;2.95;;
11131;SDS011;5620;53.570;9.718;2022-10-16T16:38:49;6.43;;;1.52;;
11131;SDS011;5620;53.570;9.718;2022-10-16T16:41:17;4.90;;;1.05;;
11131;SDS011;5620;53.570;9.718;2022-10-16T16:43:45;6.78;;;1.70;;
11131;SDS011;5620;53.570;9.718;2022-10-16T16:46:13;6.30;;;1.30;;
11131;SDS011;5620;53.570;9.718;2022-10-16T16:48:40;2.78;;;1.45;;
11131;SDS011;5620;53.570;9.718;2022-10-16T16:51:10;2.75;;;1.00;;
11131;SDS011;5620;53.570;9.718;2022-10-16T16:53:44;3.10;;;1.20;;
11131;SDS011;5620;53.570;9.718;2022-10-16T16:56:16;4.05;;;1.42;;
11131;SDS011;5620;53.570;9.718;2022-10-16T16:58:50;5.93;;;1.20;;
11131;SDS011;5620;53.570;9.718;2022-10-16T17:01:19;4.88;;;1.55;;
11131;SDS011;5620;53.570;9.718;2022-10-16T17:03:49;7.35;;;1.08;;
11131;SDS011;5620;53.570;9.718;2022-10-16T17:06:20;5.75;;;1.40;;
11131;SDS011;5620;53.570;9.718;2022-10-16T17:08:49;6.45;;;1.20;;
11131;SDS011;5620;53.570;9.718;2022-10-16T17:11:22;5.10;;;1.33;;
11131;SDS011;5620;53.570;9.718;2022-10-16T17:13:58;3.80;;;1.02;;
11131;SDS011;5620;53.570;9.718;2022-10-16T17:16:27;13.35;;;2.15;;
11131;SDS011;5620;53.570;9.718;2022-10-16T17:19:00;3.08;;;1.58;;
11131;SDS011;5620;53.570;9.718;2022-10-16T17:21:29;7.03;;;2.17;;
11131;SDS011;5620;53.570;9.718;2022-10-16T17:23:57;4.63;;;1.23;;
11131;SDS011;5620;53.570;9.718;2022-10-16T17:26:24;4.65;;;1.63;;
11131;SDS011;5620;53.570;9.718;2022-10-16T17:28:51;5.05;;;1.70;;
11131;SDS011;5620;53.570;9.718;2022-10-16T17:31:39;5.15;;;1.55;;
11131;SDS011;5620;53.570;9.718;2022-10-16T17:34:07;3.45;;;1.40;;
11131;SDS011;5620;53.570;9.718;2022-10-16T17:36:36;5.23;;;1.73;;
11131;SDS011;5620;53.570;9.718;2022-10-16T17:39:06;5.65;;;1.40;;
11131;SDS011;5620;53.570;9.718;2022-10-16T17:41:36;3.88;;;1.50;;
11131;SDS011;5620;53.570;9.718;2022-10-16T17:44:03;7.00;;;2.13;;
11131;SDS011;5620;53.570;9.718;2022-10-16T17:46:32;1.70;;;0.95;;
11131;SDS011;5620;53.570;9.718;2022-10-16T17:49:01;4.60;;;1.47;;
11131;SDS011;5620;53.570;9.718;2022-10-16T17:51:27;8.27;;;1.65;;
11131;SDS011;5620;53.570;9.718;2022-10-16T17:53:58;6.60;;;1.55;;
11131;SDS011;5620;53.570;9.718;2022-10-16T17:56:27;2.90;;;1.25;;
11131;SDS011;5620;53.570;9.718;2022-10-16T17:58:58;4.53;;;2.17;;
11131;SDS011;5620;53.570;9.718;2022-10-16T18:01:25;2.80;;;1.40;;
11131;SDS011;5620;53.570;9.718;2022-10-16T18:03:55;7.28;;;1.40;;
11131;SDS011;5620;53.570;9.718;2022-10-16T18:06:28;4.90;;;1.45;;
11131;SDS011;5620;53.570;9.718;2022-10-16T18:08:58;3.33;;;2.10;;
11131;SDS011;5620;53.570;9.718;2022-10-16T18:11:26;6.15;;;1.73;;